Conditions Actuelle
Brumeux



Pression
30.15 (inHG) - 1020.92 (mb)
Visibilité

0.6 (km) - 0.4 (miles)
   Température
9  °C
Température
9  °C
Point de Rosée
100  %
 Humidité
   Vitesse du Vent
0  km/h
0  kts
0  mph
0  m/s
   Direction du Vent
N
45°
E
90°
135°
S
180°
225°
O
270°
315°
Calme

Du Nord
   Données D'Aéroport
LFBG
Cognac-Châteaubernard (BA 709) Air Base
Metar :LFBG 040530Z AUTO 00000KT 0600 0350 R23/0450N FG VV/// 09/09 Q1021 BECMG NSC
04-10-2022 07:30
   Informations de métar brut
Le METAR brut est le format le plus courant au monde pour la transmission de données météorologiques d'observation. Il est hautement standardisé par l’Organisation de l’aviation civile internationale (OACI), ce qui lui permet d’être compris dans la plupart des pays du monde.
   API Information
Données fournies par
https://www.checkwx.com/weather/LFBG

Météo aéronautique fournissant des rapports météorologiques METAR, TAF, AIRMET, SIGMET et OUTLOOK
   © Info
CSS/SVG/PHP les scripts ont été développés pa weather34.com pour une utilisation dans le modèle weather34 © 2015-2022

Informations sur le guide fournies par Metar-Wikipedia